Argora, Idaho
Current Conditions -  °F | °C
As of 5:53 PM on Tuesday 21 Oct 2014 (Local Time) from KRXE Reporting Station
Broken Clouds Broken Clouds  
Wind Chill: 10°   Ceiling: 8000
Heat Index: 10°   Visibility: 10mi
Dew Point:   Wind: 13mph
Humidity: 52%   Direction: 200°SSW
Pressure: 30.01"   Gusts: 23mph
Location:  44.2396°N, 112.579°W
Report Text: KRXE 212353Z AUTO 20011G20KT 10SM BKN080 10/01 A3001 RMK AO2 PK WND 22026/2306 SLP147 T01000006 10117 20072 53006
Loading
Personal Weather Stations






























Interactive Weather Map
Tropical Storm Tracking
New forecast layout! Learn more

10-Day Weather Forecast

Advertisements
Track Severe Weather on mobile